KEKY Airport (Bessemer) Information

FAA: EKY - ICAO: KEKY

KEKY Airport Location

State Alabama
County Jefferson
City Bessemer
KEKY Airport is 3 miles southeast of Bessemer, AL.
Latitude 33-18-45.4000N
Longitude 086-55-34.7000W
Elevation 699ft

KEKY Airport METARs

METAR KEKY 071956Z AUTO 21006KT 10SM OVC029 23/18 A3025 RMK AO2 SLP090 T02330178
Altimeter 30.25"
Temperature 23.3°C (73.9°F)
Wind 210° at 6KT
Clouds overcast at 2,900ft
Visibility 10.0mi
Time observed: 2022-12-07T19:56:00Z

KEKY Airport Details

Status Operational
Activation March 1973
Ownership Public
Usage Public
Chart ATLANTA
ATC on-site No
Beacon schedule sunset-sunrise
Beacon color clear green

KEKY Airport Contacts

Owner CITY OF BESSEMER
Owner address 1800 N THIRD AVE, BESSEMER, AL 35020
Owner phone 205-424-4060
Manager TIM WASYLUKA
Manager address 900 MITCHELL FIELD RD, BESSEMER, AL 35022
Manager phone (205) 835-1415

KEKY Airport (Bessemer) Radio Frequencies

KEKY (Airport) Radio Frequencies

UNICOM 123
Common traffic advisory frequency (CTAF) 123